createdAt,value
2019-04-22T00:00:10.782Z,96966.25
2019-04-22T00:02:43.548Z,96967.78
2019-04-22T00:05:19.231Z,96965.01
2019-04-22T00:08:02.781Z,96959.66
2019-04-22T00:10:33.214Z,96955.47
2019-04-22T00:13:01.386Z,96961.44
2019-04-22T00:15:26.106Z,96956.83
2019-04-22T00:20:30.823Z,96951.24
2019-04-22T00:22:58.083Z,96947.59
2019-04-22T00:25:34.714Z,96951.24
2019-04-22T00:28:02.391Z,96951.10
2019-04-22T00:30:47.186Z,96946.00
2019-04-22T00:33:03.353Z,96946.31
2019-04-22T00:35:33.208Z,96943.84
2019-04-22T00:38:11.505Z,96945.20
2019-04-22T00:40:33.986Z,96942.23
2019-04-22T00:42:58.760Z,96941.83
2019-04-22T00:45:36.204Z,96940.44
2019-04-22T00:48:09.265Z,96940.66
2019-04-22T00:50:55.472Z,96935.16
2019-04-22T00:53:08.996Z,96936.58
2019-04-22T00:55:32.210Z,96934.43
2019-04-22T00:58:05.208Z,96933.32
2019-04-22T01:00:40.625Z,96938.73
2019-04-22T01:03:11.444Z,96942.70
2019-04-22T01:05:38.762Z,96947.28
2019-04-22T01:08:10.892Z,96943.03
2019-04-22T01:10:32.183Z,96948.81
2019-04-22T01:13:04.808Z,96941.10
2019-04-22T01:15:34.396Z,96952.21
2019-04-22T01:18:02.471Z,96948.72
2019-04-22T01:22:58.943Z,96944.13
2019-04-22T01:25:24.872Z,96948.02
2019-04-22T01:27:54.703Z,96944.67
2019-04-22T01:30:17.201Z,96939.69
2019-04-22T01:32:41.870Z,96937.63
2019-04-22T01:35:19.706Z,96936.03
2019-04-22T01:37:54.698Z,96938.38
2019-04-22T01:40:39.073Z,96943.59
2019-04-22T01:43:07.247Z,96936.29
2019-04-22T01:45:33.316Z,96931.44
2019-04-22T01:48:02.889Z,96934.69
2019-04-22T01:50:32.041Z,96935.33
2019-04-22T01:53:06.468Z,96936.79
2019-04-22T01:55:31.369Z,96932.39
2019-04-22T01:57:53.618Z,96928.72
2019-04-22T02:00:36.037Z,96926.08
2019-04-22T02:03:08.272Z,96919.83
2019-04-22T02:05:53.618Z,96916.38
2019-04-22T02:08:09.691Z,96915.12
2019-04-22T02:13:01.492Z,96908.23
2019-04-22T02:15:32.906Z,96908.63
2019-04-22T02:18:03.317Z,96902.31
2019-04-22T02:20:31.102Z,96901.27
2019-04-22T02:26:02.495Z,96890.83
2019-04-22T02:31:23.206Z,96884.09
2019-04-22T02:41:21.013Z,96873.49
2019-04-22T02:46:13.540Z,96864.41
2019-04-22T02:48:49.792Z,96865.30
2019-04-22T02:51:02.135Z,96870.39
2019-04-22T02:53:58.995Z,96862.20
2019-04-22T02:56:01.699Z,96852.86
2019-04-22T02:58:41.169Z,96858.63
2019-04-22T03:01:01.395Z,96854.19
2019-04-22T03:03:48.025Z,96845.63
2019-04-22T03:08:25.239Z,96845.32
2019-04-22T03:13:34.465Z,96835.78
2019-04-22T03:15:59.580Z,96845.13
2019-04-22T03:18:35.462Z,96838.72
2019-04-22T03:21:07.766Z,96830.44
2019-04-22T03:23:36.811Z,96832.40
2019-04-22T03:28:19.810Z,96835.45
2019-04-22T03:31:34.254Z,96838.12
2019-04-22T03:34:15.393Z,96831.27
2019-04-22T03:36:55.634Z,96837.82
2019-04-22T03:39:24.850Z,96833.56
2019-04-22T03:41:27.212Z,96828.16
2019-04-22T03:43:54.139Z,96826.97
2019-04-22T03:46:13.915Z,96829.37
2019-04-22T03:48:45.460Z,96825.41
2019-04-22T03:51:33.907Z,96824.81
2019-04-22T03:56:18.821Z,96813.67
2019-04-22T03:58:52.284Z,96819.86
2019-04-22T04:03:39.528Z,96819.06
2019-04-22T04:06:06.721Z,96805.81
2019-04-22T04:08:57.284Z,96809.62
2019-04-22T04:11:14.651Z,96812.07
2019-04-22T04:13:33.488Z,96811.83
2019-04-22T04:16:07.423Z,96805.33
2019-04-22T04:18:42.497Z,96807.16
2019-04-22T04:21:14.585Z,96806.98
2019-04-22T04:23:37.962Z,96806.23
2019-04-22T04:25:52.575Z,96806.08
2019-04-22T04:31:09.949Z,96798.78
2019-04-22T04:33:36.238Z,96804.34
2019-04-22T04:35:58.727Z,96808.02
2019-04-22T04:38:24.316Z,96799.92
2019-04-22T04:43:30.028Z,96799.63
2019-04-22T04:48:21.031Z,96791.31
2019-04-22T04:51:00.395Z,96791.34
2019-04-22T04:53:28.120Z,96793.83
2019-04-22T04:55:47.004Z,96802.73
2019-04-22T04:58:27.504Z,96809.66
2019-04-22T05:03:23.342Z,96802.08
2019-04-22T05:05:41.575Z,96795.47
2019-04-22T05:08:15.099Z,96803.27
2019-04-22T05:10:53.775Z,96804.00
2019-04-22T05:13:12.295Z,96807.89
2019-04-22T05:15:57.633Z,96824.68
2019-04-22T05:18:14.924Z,96825.00
2019-04-22T05:20:53.403Z,96811.44
2019-04-22T05:23:03.248Z,96816.51
2019-04-22T05:25:27.292Z,96811.34
2019-04-22T05:27:59.062Z,96814.78
2019-04-22T05:30:35.869Z,96820.98
2019-04-22T05:33:02.985Z,96823.20
2019-04-22T05:35:31.154Z,96821.20
2019-04-22T05:40:28.325Z,96827.59
2019-04-22T05:43:02.538Z,96827.89
2019-04-22T05:45:42.988Z,96832.51
2019-04-22T05:50:27.211Z,96834.03
2019-04-22T05:53:13.221Z,96834.17
2019-04-22T05:55:36.066Z,96832.72
2019-04-22T05:58:02.491Z,96827.69
2019-04-22T06:01:00.039Z,96825.85
2019-04-22T06:03:06.777Z,96830.46
2019-04-22T06:08:02.118Z,96836.03
2019-04-22T06:10:39.303Z,96837.69
2019-04-22T06:12:59.535Z,96837.69
2019-04-22T06:15:29.076Z,96841.33
2019-04-22T06:18:09.590Z,96842.92
2019-04-22T06:20:36.981Z,96849.30
2019-04-22T06:23:04.514Z,96844.98
2019-04-22T06:25:51.402Z,96849.48
2019-04-22T06:28:05.417Z,96847.55
2019-04-22T06:30:28.387Z,96856.92
2019-04-22T06:33:01.155Z,96860.94
2019-04-22T06:38:19.261Z,96864.31
2019-04-22T06:40:31.712Z,96873.39
2019-04-22T06:43:03.434Z,96871.77
2019-04-22T06:45:30.564Z,96881.85
2019-04-22T06:50:38.260Z,96879.86
2019-04-22T06:55:40.154Z,96872.23
2019-04-22T06:58:00.375Z,96872.23
2019-04-22T07:00:35.057Z,96873.00
2019-04-22T07:05:32.792Z,96886.75
2019-04-22T07:08:14.358Z,96888.85
2019-04-22T07:10:35.180Z,96887.36
2019-04-22T07:13:03.944Z,96891.20
2019-04-22T07:15:46.438Z,96891.20
2019-04-22T07:18:03.042Z,96896.15
2019-04-22T07:20:30.418Z,96896.84
2019-04-22T07:23:06.782Z,96893.98
2019-04-22T07:25:30.919Z,96895.09
2019-04-22T07:28:00.988Z,96900.20
2019-04-22T07:30:35.585Z,96896.77
2019-04-22T07:33:15.130Z,96889.72
2019-04-22T07:35:41.176Z,96891.97
2019-04-22T07:38:07.005Z,96892.05
2019-04-22T07:40:37.405Z,96891.67
2019-04-22T07:43:09.126Z,96890.47
2019-04-22T07:48:15.316Z,96890.73
2019-04-22T07:50:43.115Z,96888.84
2019-04-22T07:53:02.223Z,96893.07
2019-04-22T07:55:29.463Z,96891.89
2019-04-22T07:58:00.856Z,96890.12
2019-04-22T08:00:34.293Z,96898.89
2019-04-22T08:03:06.627Z,96897.02
2019-04-22T08:05:35.899Z,96891.23
2019-04-22T08:08:10.973Z,96893.52
2019-04-22T08:10:38.069Z,96898.55
2019-04-22T08:13:05.684Z,96893.23
2019-04-22T08:15:33.364Z,96888.52
2019-04-22T08:18:17.762Z,96883.02
2019-04-22T08:20:33.908Z,96883.14
2019-04-22T08:25:31.557Z,96891.40
2019-04-22T08:28:05.411Z,96895.45
2019-04-22T08:33:13.692Z,96898.37
2019-04-22T08:35:55.175Z,96904.52
2019-04-22T08:38:10.342Z,96915.15
2019-04-22T08:40:45.307Z,96917.81
2019-04-22T08:43:14.383Z,96924.84
2019-04-22T08:45:43.033Z,96930.42
2019-04-22T08:48:01.024Z,96938.47
2019-04-22T08:50:33.695Z,96940.89
2019-04-22T08:53:09.417Z,96940.25
2019-04-22T08:55:38.587Z,96938.30
2019-04-22T09:00:37.354Z,96926.12
2019-04-22T09:03:04.630Z,96926.75
2019-04-22T09:08:09.084Z,96921.00
2019-04-22T09:10:31.368Z,96928.10
2019-04-22T09:13:01.017Z,96928.37
2019-04-22T09:15:30.396Z,96927.57
2019-04-22T09:18:02.365Z,96932.19
2019-04-22T09:20:32.480Z,96935.55
2019-04-22T09:23:02.662Z,96928.91
2019-04-22T09:25:29.873Z,96931.92
2019-04-22T09:27:59.326Z,96924.20
2019-04-22T09:30:43.313Z,96932.79
2019-04-22T09:33:09.953Z,96931.59
2019-04-22T09:38:16.960Z,96926.98
2019-04-22T09:40:28.967Z,96926.38
2019-04-22T09:43:17.000Z,96933.61
2019-04-22T09:45:31.080Z,96930.95
2019-04-22T09:48:08.743Z,96932.34
2019-04-22T09:50:36.834Z,96933.77
2019-04-22T09:53:04.929Z,96928.95
2019-04-22T09:55:32.848Z,96934.42
2019-04-22T09:58:03.079Z,96933.98
2019-04-22T10:00:39.427Z,96937.80
2019-04-22T10:03:10.026Z,96940.25
2019-04-22T10:05:35.728Z,96947.22
2019-04-22T10:08:14.463Z,96939.50
2019-04-22T10:10:35.445Z,96947.29
2019-04-22T10:13:10.512Z,96951.30
2019-04-22T10:15:33.766Z,96953.37
2019-04-22T10:18:04.159Z,96948.86
2019-04-22T10:20:31.607Z,96956.61
2019-04-22T10:22:57.709Z,96952.80
2019-04-22T10:25:29.845Z,96959.66
2019-04-22T10:28:11.517Z,96959.50
2019-04-22T10:30:38.391Z,96964.35
2019-04-22T10:33:00.807Z,96971.52
2019-04-22T10:35:15.550Z,96972.02
2019-04-22T10:37:38.855Z,96980.30
2019-04-22T10:40:13.673Z,96980.81
2019-04-22T10:42:43.159Z,96981.55
2019-04-22T10:45:12.381Z,96988.08
2019-04-22T10:47:40.388Z,96990.84
2019-04-22T10:50:10.302Z,96992.60
2019-04-22T10:52:37.389Z,96987.68
2019-04-22T10:55:09.575Z,96984.91
2019-04-22T10:57:36.957Z,96979.97
2019-04-22T11:00:09.327Z,96980.31
2019-04-22T11:02:37.215Z,96979.97
2019-04-22T11:05:06.200Z,96975.36
2019-04-22T11:07:41.606Z,96969.16
2019-04-22T11:10:22.378Z,96966.45
2019-04-22T11:12:37.533Z,96972.00
2019-04-22T11:15:05.600Z,96971.22
2019-04-22T11:17:33.526Z,96968.74
2019-04-22T11:20:01.901Z,96970.77
2019-04-22T11:22:33.185Z,96966.87
2019-04-22T11:24:59.848Z,96959.72
2019-04-22T11:27:27.013Z,96958.31
2019-04-22T11:29:55.386Z,96949.30
2019-04-22T11:32:22.651Z,96954.20
2019-04-22T11:34:51.111Z,96946.89
2019-04-22T11:37:18.593Z,96942.81
2019-04-22T11:39:50.637Z,96944.92
2019-04-22T11:42:16.337Z,96948.38
2019-04-22T11:44:43.515Z,96938.38
2019-04-22T11:47:11.783Z,96948.36
2019-04-22T11:49:41.642Z,96944.20
2019-04-22T11:52:12.120Z,96951.05
2019-04-22T11:54:38.878Z,96943.13
2019-04-22T11:57:07.379Z,96942.72
2019-04-22T11:59:34.510Z,96939.69
2019-04-22T12:02:02.536Z,96944.34
2019-04-22T12:04:29.979Z,96945.59
2019-04-22T12:06:57.953Z,96941.47
2019-04-22T12:09:25.776Z,96941.86
2019-04-22T12:11:53.869Z,96936.78
2019-04-22T12:14:22.236Z,96932.52
2019-04-22T12:16:49.795Z,96930.18
2019-04-22T12:19:18.849Z,96930.59
2019-04-22T12:21:46.823Z,96936.30
2019-04-22T12:24:15.191Z,96931.97
2019-04-22T12:26:42.496Z,96931.59
2019-04-22T12:29:13.238Z,96939.22
2019-04-22T12:31:41.902Z,96931.70
2019-04-22T12:34:09.255Z,96925.57
2019-04-22T12:36:36.440Z,96929.65
2019-04-22T12:39:07.640Z,96932.17
2019-04-22T12:41:35.953Z,96927.38
2019-04-22T12:44:05.211Z,96926.96
2019-04-22T12:46:33.936Z,96920.42
2019-04-22T12:49:02.355Z,96922.00
2019-04-22T12:51:31.174Z,96918.87
2019-04-22T12:53:59.412Z,96918.45
2019-04-22T12:56:27.863Z,96936.04
2019-04-22T12:58:55.899Z,96911.27
2019-04-22T13:01:24.551Z,96914.94
2019-04-22T13:03:52.119Z,96908.50
2019-04-22T13:06:19.496Z,96904.59
2019-04-22T13:08:47.684Z,96907.77
2019-04-22T13:11:18.506Z,96905.25
2019-04-22T13:13:45.137Z,96904.14
2019-04-22T13:16:13.359Z,96901.29
2019-04-22T13:18:49.287Z,96900.02
2019-04-22T13:21:10.871Z,96898.58
2019-04-22T13:23:39.038Z,96889.98
2019-04-22T13:26:07.424Z,96895.30
2019-04-22T13:28:34.733Z,96895.04
2019-04-22T13:31:03.406Z,96886.57
2019-04-22T13:33:30.842Z,96896.74
2019-04-22T13:35:59.572Z,96889.31
2019-04-22T13:38:27.023Z,96888.80
2019-04-22T13:41:07.175Z,96884.98
2019-04-22T13:43:23.151Z,96888.96
2019-04-22T13:45:50.208Z,96885.48
2019-04-22T13:48:38.658Z,96887.05
2019-04-22T13:51:18.592Z,96885.26
2019-04-22T13:56:07.595Z,96877.39
2019-04-22T13:58:30.207Z,96880.54
2019-04-22T14:00:44.694Z,96878.59
2019-04-22T14:03:16.171Z,96881.50
2019-04-22T14:05:46.758Z,96887.91
2019-04-22T14:08:14.619Z,96891.37
2019-04-22T14:10:43.075Z,96879.50
2019-04-22T14:13:10.124Z,96881.73
2019-04-22T14:15:38.064Z,96884.34
2019-04-22T14:18:07.279Z,96887.17
2019-04-22T14:20:36.599Z,96884.19
2019-04-22T14:23:05.988Z,96878.06
2019-04-22T14:25:34.500Z,96877.48
2019-04-22T14:28:06.108Z,96882.39
2019-04-22T14:30:30.865Z,96885.34
2019-04-22T14:32:58.038Z,96882.45
2019-04-22T14:35:25.275Z,96885.98
2019-04-22T14:37:52.377Z,96880.50
2019-04-22T14:40:22.039Z,96880.50
2019-04-22T14:43:10.679Z,96873.65
2019-04-22T14:45:52.190Z,96875.23
2019-04-22T14:48:11.025Z,96870.33
2019-04-22T14:50:42.266Z,96875.45
2019-04-22T14:53:07.827Z,96877.39
2019-04-22T14:55:23.120Z,96886.05
2019-04-22T14:57:46.902Z,96871.55
2019-04-22T15:00:17.920Z,96879.41
2019-04-22T15:02:46.037Z,96874.71
2019-04-22T15:05:16.378Z,96876.23
2019-04-22T15:07:44.564Z,96887.36
2019-04-22T15:10:13.713Z,96880.59
2019-04-22T15:12:46.026Z,96879.56
2019-04-22T15:15:27.147Z,96879.92
2019-04-22T15:18:00.886Z,96865.06
2019-04-22T15:20:48.619Z,96870.97
2019-04-22T15:23:14.809Z,96877.03
2019-04-22T15:25:42.423Z,96873.29
2019-04-22T15:28:09.547Z,96871.13
2019-04-22T15:30:37.411Z,96866.80
2019-04-22T15:33:05.534Z,96874.02
2019-04-22T15:35:33.622Z,96877.92
2019-04-22T15:38:01.494Z,96875.94
2019-04-22T15:40:28.993Z,96872.34
2019-04-22T15:42:56.977Z,96884.06
2019-04-22T15:45:25.903Z,96877.91
2019-04-22T15:47:53.141Z,96878.42
2019-04-22T15:50:20.704Z,96886.98
2019-04-22T15:52:51.336Z,96876.75
2019-04-22T15:55:16.534Z,96888.65
2019-04-22T15:57:43.992Z,96874.13
2019-04-22T16:00:25.158Z,96881.40
2019-04-22T16:02:43.748Z,96875.70
2019-04-22T16:05:11.011Z,96875.92
2019-04-22T16:07:37.991Z,96876.65
2019-04-22T16:10:08.229Z,96868.00
2019-04-22T16:12:44.125Z,96871.07
2019-04-22T16:15:07.523Z,96881.16
2019-04-22T16:17:36.865Z,96871.69
2019-04-22T16:20:05.199Z,96880.02
2019-04-22T16:22:34.499Z,96874.64
2019-04-22T16:25:19.398Z,96878.83
2019-04-22T16:27:46.395Z,96873.67
2019-04-22T16:30:14.998Z,96873.77
2019-04-22T16:32:43.355Z,96871.36
2019-04-22T16:35:10.632Z,96872.80
2019-04-22T16:37:38.838Z,96871.74
2019-04-22T16:40:07.225Z,96863.27
2019-04-22T16:42:43.277Z,96875.16
2019-04-22T16:45:05.537Z,96877.09
2019-04-22T16:47:33.345Z,96873.78
2019-04-22T16:50:01.809Z,96868.09
2019-04-22T16:52:30.260Z,96871.05
2019-04-22T16:54:58.956Z,96885.09
2019-04-22T16:57:26.204Z,96883.14
2019-04-22T16:59:53.241Z,96886.67
2019-04-22T17:02:22.462Z,96874.36
2019-04-22T17:04:51.725Z,96882.13
2019-04-22T17:07:20.336Z,96875.00
2019-04-22T17:09:48.018Z,96879.61
2019-04-22T17:12:16.180Z,96883.44
2019-04-22T17:14:50.409Z,96885.95
2019-04-22T17:17:12.847Z,96885.52
2019-04-22T17:19:39.832Z,96878.47
2019-04-22T17:22:07.900Z,96883.53
2019-04-22T17:24:35.449Z,96880.86
2019-04-22T17:27:04.429Z,96890.95
2019-04-22T17:29:32.429Z,96880.90
2019-04-22T17:32:06.690Z,96889.55
2019-04-22T17:34:29.534Z,96881.17
2019-04-22T17:36:57.251Z,96886.29
2019-04-22T17:39:35.694Z,96881.34
2019-04-22T17:42:11.211Z,96889.10
2019-04-22T17:44:54.304Z,96888.47
2019-04-22T17:47:04.554Z,96892.44
2019-04-22T17:49:50.293Z,96898.52
2019-04-22T17:52:32.614Z,96908.02
2019-04-22T17:54:48.027Z,96899.73
2019-04-22T17:57:19.198Z,96906.28
2019-04-22T17:59:44.772Z,96912.02
2019-04-22T18:02:09.670Z,96909.56
2019-04-22T18:04:29.101Z,96922.50
2019-04-22T18:07:18.370Z,96918.47
2019-04-22T18:10:14.052Z,96919.11
2019-04-22T18:12:22.395Z,96921.64
2019-04-22T18:14:59.538Z,96927.39
2019-04-22T18:17:11.516Z,96916.05
2019-04-22T18:19:36.641Z,96918.61
2019-04-22T18:22:00.841Z,96918.67
2019-04-22T18:24:26.533Z,96925.74
2019-04-22T18:27:18.953Z,96926.59
2019-04-22T18:29:35.948Z,96932.39
2019-04-22T18:31:54.461Z,96932.39
2019-04-22T18:34:26.655Z,96924.92
2019-04-22T18:37:01.693Z,96926.41
2019-04-22T18:39:36.358Z,96937.25
2019-04-22T18:41:58.599Z,96931.70
2019-04-22T18:44:31.103Z,96941.73
2019-04-22T18:46:58.140Z,96939.59
2019-04-22T18:49:29.500Z,96938.28
2019-04-22T18:52:04.458Z,96938.40
2019-04-22T18:54:45.793Z,96940.25
2019-04-22T18:57:16.040Z,96941.51
2019-04-22T18:59:33.832Z,96933.82
2019-04-22T19:02:03.772Z,96914.63
2019-04-22T19:04:37.960Z,96914.63
2019-04-22T19:07:23.977Z,96942.31
2019-04-22T19:09:59.766Z,96936.33
2019-04-22T19:12:33.777Z,96935.79
2019-04-22T19:14:49.938Z,96938.97
2019-04-22T19:17:24.985Z,96942.38
2019-04-22T19:19:46.302Z,96936.95
2019-04-22T19:22:07.663Z,96926.31
2019-04-22T19:24:34.463Z,96906.42
2019-04-22T19:27:12.511Z,96946.55
2019-04-22T19:29:36.843Z,96951.88
2019-04-22T19:32:09.747Z,96925.14
2019-04-22T19:34:36.898Z,96945.44
2019-04-22T19:37:03.420Z,96949.20
2019-04-22T19:39:33.105Z,96927.45
2019-04-22T19:42:12.470Z,96950.70
2019-04-22T19:44:36.261Z,96951.04
2019-04-22T19:47:19.588Z,96955.00
2019-04-22T19:49:42.707Z,96950.60
2019-04-22T19:52:05.157Z,96952.04
2019-04-22T19:54:27.745Z,96958.75
2019-04-22T19:56:47.323Z,96959.77
2019-04-22T19:59:16.381Z,96925.66
2019-04-22T20:01:55.354Z,96925.66
2019-04-22T20:04:41.653Z,96944.82
2019-04-22T20:06:56.385Z,96943.23
2019-04-22T20:09:31.605Z,96945.26
2019-04-22T20:11:59.628Z,96953.20
2019-04-22T20:14:28.062Z,96953.20
2019-04-22T20:16:48.717Z,96957.29
2019-04-22T20:19:31.914Z,96956.06
2019-04-22T20:21:59.985Z,96951.53
2019-04-22T20:24:12.325Z,96949.02
2019-04-22T20:26:59.434Z,96949.38
2019-04-22T20:29:25.754Z,96950.05
2019-04-22T20:31:53.063Z,96953.20
2019-04-22T20:34:28.333Z,96940.27
2019-04-22T20:39:10.884Z,96961.13
2019-04-22T20:41:43.314Z,96955.36
2019-04-22T20:44:15.977Z,96958.84
2019-04-22T20:46:44.060Z,96963.67
2019-04-22T20:49:11.730Z,96955.64
2019-04-22T20:51:53.639Z,96959.02
2019-04-22T20:54:12.334Z,96955.41
2019-04-22T20:56:42.476Z,96952.55
2019-04-22T20:59:08.189Z,96959.72
2019-04-22T21:01:39.735Z,96957.67
2019-04-22T21:03:53.563Z,96955.42
2019-04-22T21:06:36.882Z,96956.78
2019-04-22T21:09:08.869Z,96932.95
2019-04-22T21:11:37.134Z,96932.95
2019-04-22T21:14:04.263Z,96956.88
2019-04-22T21:16:35.109Z,96954.95
2019-04-22T21:18:57.820Z,96960.52
2019-04-22T21:21:35.885Z,96958.59
2019-04-22T21:23:52.904Z,96963.33
2019-04-22T21:26:27.443Z,96962.86
2019-04-22T21:28:53.585Z,96959.71
2019-04-22T21:31:32.362Z,96967.63
2019-04-22T21:33:50.284Z,96969.55
2019-04-22T21:36:30.156Z,96962.43
2019-04-22T21:38:53.033Z,96962.43
2019-04-22T21:41:20.371Z,96953.02
2019-04-22T21:43:54.790Z,96956.30
2019-04-22T21:46:19.302Z,96951.98
2019-04-22T21:48:46.200Z,96948.94
2019-04-22T21:51:18.787Z,96954.05
2019-04-22T21:53:58.758Z,96943.84
2019-04-22T21:58:52.603Z,96939.33
2019-04-22T22:01:28.863Z,96942.52
2019-04-22T22:03:57.247Z,96935.82
2019-04-22T22:06:13.905Z,96934.56
2019-04-22T22:08:55.112Z,96933.66
2019-04-22T22:11:13.844Z,96932.27
2019-04-22T22:13:45.413Z,96931.36
2019-04-22T22:16:10.326Z,96929.42
2019-04-22T22:18:41.957Z,96928.95
2019-04-22T22:21:33.646Z,96926.66
2019-04-22T22:23:44.037Z,96921.11
2019-04-22T22:26:08.559Z,96927.11
2019-04-22T22:28:52.033Z,96924.02
2019-04-22T22:31:15.489Z,96926.06
2019-04-22T22:33:43.411Z,96920.16
2019-04-22T22:36:04.998Z,96919.45
2019-04-22T22:38:29.796Z,96913.59
2019-04-22T22:40:45.910Z,96914.01
2019-04-22T22:43:22.643Z,96906.55
2019-04-22T22:45:54.484Z,96900.98
2019-04-22T22:48:33.759Z,96900.27
2019-04-22T22:51:02.109Z,96890.66
2019-04-22T22:53:38.678Z,96887.36
2019-04-22T22:56:00.459Z,96877.69
2019-04-22T22:58:29.216Z,96885.36
2019-04-22T23:00:56.181Z,96877.90
2019-04-22T23:06:06.254Z,96875.37
2019-04-22T23:08:34.400Z,96876.23
2019-04-22T23:11:00.751Z,96880.19
2019-04-22T23:13:33.494Z,96869.98
2019-04-22T23:15:50.889Z,96868.28
2019-04-22T23:18:05.906Z,96867.81
2019-04-22T23:20:38.211Z,96868.70
2019-04-22T23:23:23.918Z,96867.10
2019-04-22T23:25:54.704Z,96867.55
2019-04-22T23:28:19.258Z,96870.67
2019-04-22T23:30:57.197Z,96865.81
2019-04-22T23:33:42.438Z,96868.52
2019-04-22T23:36:08.687Z,96862.33
2019-04-22T23:38:53.688Z,96864.57
2019-04-22T23:41:42.430Z,96855.48
2019-04-22T23:44:11.448Z,96858.77
2019-04-22T23:46:41.459Z,96857.41
2019-04-22T23:49:08.768Z,96855.84
2019-04-22T23:51:51.431Z,96846.44
2019-04-22T23:54:12.974Z,96853.78
2019-04-22T23:56:38.155Z,96857.94
2019-04-22T23:59:14.911Z,96863.23
